createdAt,value
2023-05-23T00:01:08.554Z,3.33
2023-05-23T00:03:56.555Z,3.40
2023-05-23T00:06:47.077Z,4.00
2023-05-23T00:09:34.141Z,3.10
2023-05-23T00:12:21.239Z,3.73
2023-05-23T00:15:10.033Z,3.83
2023-05-23T00:17:58.168Z,3.43
2023-05-23T00:20:45.687Z,3.30
2023-05-23T00:23:33.989Z,3.33
2023-05-23T00:26:21.900Z,3.63
2023-05-23T00:29:15.743Z,3.50
2023-05-23T00:32:02.702Z,4.13
2023-05-23T00:34:50.946Z,3.73
2023-05-23T00:37:38.649Z,3.47
2023-05-23T00:40:25.076Z,3.70
2023-05-23T00:43:12.486Z,3.30
2023-05-23T00:45:59.936Z,3.87
2023-05-23T00:48:46.856Z,3.20
2023-05-23T00:51:35.217Z,3.30
2023-05-23T00:54:26.028Z,3.77
2023-05-23T00:57:14.358Z,3.57
2023-05-23T01:00:01.638Z,3.30
2023-05-23T01:02:51.447Z,3.90
2023-05-23T01:05:38.204Z,3.40
2023-05-23T01:08:26.347Z,3.50
2023-05-23T01:11:19.099Z,10.90
2023-05-23T01:14:10.558Z,7.63
2023-05-23T01:17:03.854Z,6.47
2023-05-23T01:20:01.222Z,5.07
2023-05-23T01:23:11.840Z,4.03
2023-05-23T01:26:26.321Z,4.07
2023-05-23T01:29:21.453Z,4.30
2023-05-23T01:32:13.258Z,3.90
2023-05-23T01:35:02.067Z,3.67
2023-05-23T01:37:48.610Z,4.00
2023-05-23T01:40:35.369Z,3.90
2023-05-23T01:43:22.598Z,3.50
2023-05-23T01:46:14.237Z,3.70
2023-05-23T01:49:02.049Z,4.00
2023-05-23T01:51:49.004Z,3.83
2023-05-23T01:54:35.788Z,3.47
2023-05-23T01:57:24.242Z,3.97
2023-05-23T02:00:12.388Z,3.63
2023-05-23T02:03:04.221Z,3.80
2023-05-23T02:05:52.812Z,3.60
2023-05-23T02:08:39.551Z,3.67
2023-05-23T02:11:26.969Z,3.63
2023-05-23T02:14:13.926Z,3.70
2023-05-23T02:17:00.760Z,3.73
2023-05-23T02:19:49.070Z,3.97
2023-05-23T02:22:35.577Z,3.80
2023-05-23T02:25:22.362Z,3.87
2023-05-23T02:28:09.168Z,3.67
2023-05-23T02:30:56.242Z,3.30
2023-05-23T02:33:43.453Z,4.17
2023-05-23T02:36:33.500Z,3.87
2023-05-23T02:39:20.727Z,4.07
2023-05-23T02:42:07.915Z,3.87
2023-05-23T02:44:54.368Z,3.43
2023-05-23T02:47:41.169Z,3.73
2023-05-23T02:50:29.002Z,3.43
2023-05-23T02:53:17.376Z,4.13
2023-05-23T02:56:04.413Z,4.03
2023-05-23T02:58:51.159Z,4.53
2023-05-23T03:01:37.964Z,4.77
2023-05-23T03:04:24.646Z,4.47
2023-05-23T03:07:27.059Z,4.47
2023-05-23T03:10:17.144Z,4.83
2023-05-23T03:13:04.694Z,5.30
2023-05-23T03:15:51.779Z,4.67
2023-05-23T03:18:38.618Z,4.40
2023-05-23T03:21:25.941Z,4.60
2023-05-23T03:24:12.889Z,5.07
2023-05-23T03:27:01.669Z,4.83
2023-05-23T03:29:49.292Z,4.53
2023-05-23T03:32:36.631Z,5.10
2023-05-23T03:35:23.968Z,4.37
2023-05-23T03:38:10.803Z,4.50
2023-05-23T03:40:57.536Z,4.90
2023-05-23T03:43:46.145Z,4.20
2023-05-23T03:46:33.435Z,4.87
2023-05-23T03:49:20.748Z,5.10
2023-05-23T03:52:07.959Z,4.77
2023-05-23T03:54:55.710Z,4.30
2023-05-23T03:57:43.164Z,4.33
2023-05-23T04:00:31.584Z,4.80
2023-05-23T04:03:21.569Z,4.73
2023-05-23T04:06:12.227Z,4.37
2023-05-23T04:09:02.659Z,4.70
2023-05-23T04:11:51.585Z,4.60
2023-05-23T04:14:39.649Z,4.37
2023-05-23T04:17:29.735Z,5.07
2023-05-23T04:20:16.861Z,4.63
2023-05-23T04:23:03.655Z,5.70
2023-05-23T04:25:52.976Z,4.67
2023-05-23T04:28:46.418Z,5.03
2023-05-23T04:31:34.109Z,4.70
2023-05-23T04:34:23.306Z,4.90
2023-05-23T04:37:10.459Z,4.43
2023-05-23T04:39:59.433Z,4.50
2023-05-23T04:43:16.533Z,4.60
2023-05-23T04:46:14.088Z,4.67
2023-05-23T04:49:04.234Z,4.37
2023-05-23T04:51:52.708Z,4.80
2023-05-23T04:54:45.038Z,4.37
2023-05-23T04:57:32.432Z,4.47
2023-05-23T05:00:21.753Z,4.60
2023-05-23T05:03:10.086Z,4.83
2023-05-23T05:06:02.035Z,4.80
2023-05-23T05:08:49.954Z,4.83
2023-05-23T05:11:36.871Z,5.20
2023-05-23T05:14:23.459Z,5.00
2023-05-23T05:17:10.338Z,4.37
2023-05-23T05:20:19.370Z,5.37
2023-05-23T05:23:05.852Z,5.20
2023-05-23T05:25:54.136Z,4.93
2023-05-23T05:28:41.903Z,5.30
2023-05-23T05:31:29.754Z,4.87
2023-05-23T05:34:16.346Z,5.20
2023-05-23T05:37:04.141Z,5.60
2023-05-23T05:39:50.886Z,5.43
2023-05-23T05:42:39.023Z,5.00
2023-05-23T05:45:25.890Z,5.10
2023-05-23T05:48:13.719Z,5.30
2023-05-23T05:51:01.272Z,5.67
2023-05-23T05:53:51.349Z,5.60
2023-05-23T05:56:38.245Z,5.40
2023-05-23T05:59:26.312Z,5.03
2023-05-23T06:02:14.747Z,5.80
2023-05-23T06:05:01.516Z,4.97
2023-05-23T06:07:51.374Z,5.40
2023-05-23T06:10:39.824Z,5.97
2023-05-23T06:13:26.824Z,5.60
2023-05-23T06:16:16.241Z,4.90
2023-05-23T06:19:04.937Z,5.07
2023-05-23T06:21:51.890Z,4.90
2023-05-23T06:24:40.035Z,5.73
2023-05-23T06:27:26.981Z,6.07
2023-05-23T06:30:14.905Z,5.67
2023-05-23T06:33:02.831Z,6.63
2023-05-23T06:35:49.268Z,6.13
2023-05-23T06:38:36.240Z,6.90
2023-05-23T06:41:22.956Z,6.10
2023-05-23T06:44:11.659Z,6.60
2023-05-23T06:47:00.826Z,6.90
2023-05-23T06:49:48.973Z,6.40
2023-05-23T06:52:35.793Z,5.70
2023-05-23T06:55:22.970Z,6.17
2023-05-23T06:58:09.859Z,6.10
2023-05-23T07:00:58.333Z,6.03
2023-05-23T07:03:48.300Z,5.87
2023-05-23T07:06:36.904Z,6.50
2023-05-23T07:09:25.686Z,6.07
2023-05-23T07:12:21.790Z,6.43
2023-05-23T07:15:09.784Z,6.47
2023-05-23T07:18:03.358Z,6.07
2023-05-23T07:20:51.226Z,5.37
2023-05-23T07:23:42.206Z,6.03
2023-05-23T07:26:29.138Z,6.17
2023-05-23T07:29:16.586Z,6.13
2023-05-23T07:32:06.312Z,6.00
2023-05-23T07:34:53.130Z,5.67
2023-05-23T07:37:40.070Z,6.27
2023-05-23T07:40:28.186Z,5.70
2023-05-23T07:43:14.646Z,6.30
2023-05-23T07:46:01.577Z,5.83
2023-05-23T07:48:48.262Z,5.83
2023-05-23T07:51:35.102Z,6.47
2023-05-23T07:54:22.119Z,6.03
2023-05-23T07:57:16.678Z,6.33
2023-05-23T08:00:05.144Z,6.57
2023-05-23T08:03:01.655Z,5.30
2023-05-23T08:05:56.158Z,6.50
2023-05-23T08:08:43.959Z,5.97
2023-05-23T08:11:30.909Z,5.90
2023-05-23T08:14:19.119Z,6.13
2023-05-23T08:17:24.852Z,5.90
2023-05-23T08:20:13.471Z,5.33
2023-05-23T08:23:00.380Z,5.90
2023-05-23T08:25:47.052Z,6.37
2023-05-23T08:28:35.318Z,6.27
2023-05-23T08:31:27.683Z,6.67
2023-05-23T08:34:15.163Z,7.03
2023-05-23T08:37:02.750Z,6.10
2023-05-23T08:39:49.515Z,5.93
2023-05-23T08:42:59.328Z,6.03
2023-05-23T08:45:47.074Z,6.20
2023-05-23T08:48:39.188Z,6.33
2023-05-23T08:51:27.842Z,5.87
2023-05-23T08:54:18.153Z,6.40
2023-05-23T08:57:05.201Z,6.47
2023-05-23T08:59:59.231Z,5.63
2023-05-23T09:02:46.354Z,6.40
2023-05-23T09:05:59.154Z,5.80
2023-05-23T09:08:46.912Z,6.23
2023-05-23T09:11:36.320Z,5.67
2023-05-23T09:14:26.952Z,5.80
2023-05-23T09:17:19.272Z,6.37
2023-05-23T09:20:13.314Z,6.30
2023-05-23T09:23:07.258Z,5.70
2023-05-23T09:25:54.151Z,6.00
2023-05-23T09:28:44.000Z,5.93
2023-05-23T09:31:33.606Z,5.10
2023-05-23T09:34:21.891Z,5.30
2023-05-23T09:37:09.783Z,5.37
2023-05-23T09:39:58.374Z,5.63
2023-05-23T09:42:46.420Z,5.03
2023-05-23T09:45:34.331Z,5.10
2023-05-23T09:48:29.150Z,5.00
2023-05-23T09:51:16.340Z,4.80
2023-05-23T09:54:02.752Z,5.37
2023-05-23T09:56:54.082Z,5.70
2023-05-23T09:59:43.321Z,4.97
2023-05-23T10:02:55.905Z,4.90
2023-05-23T10:05:46.259Z,4.70
2023-05-23T10:08:38.236Z,4.70
2023-05-23T10:12:16.775Z,4.93
2023-05-23T10:15:04.918Z,4.77
2023-05-23T10:18:03.155Z,4.73
2023-05-23T10:20:50.981Z,4.93
2023-05-23T10:23:39.197Z,5.43
2023-05-23T10:26:26.456Z,4.60
2023-05-23T10:29:14.294Z,5.00
2023-05-23T10:32:02.812Z,5.00
2023-05-23T10:35:00.254Z,4.77
2023-05-23T10:37:53.767Z,5.40
2023-05-23T10:40:52.003Z,5.20
2023-05-23T10:43:48.476Z,4.93
2023-05-23T10:47:01.375Z,5.70
2023-05-23T10:49:52.806Z,5.00
2023-05-23T10:52:41.596Z,4.83
2023-05-23T10:55:33.614Z,4.63
2023-05-23T10:58:23.253Z,4.43
2023-05-23T11:01:11.046Z,3.90
2023-05-23T11:03:59.403Z,4.40
2023-05-23T11:06:46.414Z,4.10
2023-05-23T11:09:33.139Z,4.07
2023-05-23T11:12:38.619Z,4.87
2023-05-23T11:15:25.383Z,4.47
2023-05-23T11:18:20.725Z,4.93
2023-05-23T11:21:10.559Z,4.70
2023-05-23T11:23:57.211Z,4.63
2023-05-23T11:26:54.593Z,4.93
2023-05-23T11:29:41.520Z,4.23
2023-05-23T11:32:30.952Z,4.37
2023-05-23T11:35:18.193Z,4.83
2023-05-23T11:38:06.814Z,4.23
2023-05-23T11:40:53.438Z,4.60
2023-05-23T11:43:51.525Z,4.40
2023-05-23T11:46:38.278Z,4.80
2023-05-23T11:49:24.977Z,4.80
2023-05-23T11:52:11.827Z,4.80
2023-05-23T11:55:03.959Z,5.03
2023-05-23T11:57:51.898Z,4.80
2023-05-23T12:00:44.873Z,4.63
2023-05-23T12:03:32.007Z,4.97
2023-05-23T12:06:20.098Z,4.80
2023-05-23T12:09:06.891Z,4.27
2023-05-23T12:11:55.191Z,4.73
2023-05-23T12:14:44.937Z,4.50
2023-05-23T12:17:31.698Z,4.97
2023-05-23T12:20:18.488Z,4.40
2023-05-23T12:23:06.173Z,5.07
2023-05-23T12:25:53.894Z,4.80
2023-05-23T12:28:43.342Z,4.70
2023-05-23T12:31:30.062Z,4.47
2023-05-23T12:34:17.061Z,4.40
2023-05-23T12:39:53.586Z,4.53
2023-05-23T12:42:53.784Z,4.97
2023-05-23T12:45:42.142Z,4.73
2023-05-23T12:48:30.045Z,4.47
2023-05-23T12:51:17.178Z,4.90
2023-05-23T12:54:04.652Z,4.70
2023-05-23T12:56:52.318Z,3.97
2023-05-23T12:59:38.851Z,4.07
2023-05-23T13:02:28.071Z,4.83
2023-05-23T13:05:14.872Z,4.97
2023-05-23T13:08:01.752Z,7.80
2023-05-23T13:10:48.369Z,9.57
2023-05-23T13:13:35.567Z,9.20
2023-05-23T13:16:22.308Z,11.70
2023-05-23T13:19:11.097Z,13.07
2023-05-23T13:21:57.957Z,12.17
2023-05-23T13:24:44.952Z,12.37
2023-05-23T13:27:31.596Z,12.23
2023-05-23T13:30:18.531Z,12.03
2023-05-23T13:33:05.531Z,12.50
2023-05-23T13:35:54.382Z,12.90
2023-05-23T13:38:42.395Z,12.40
2023-05-23T13:41:31.995Z,12.40
2023-05-23T13:44:18.725Z,13.80
2023-05-23T13:47:13.402Z,12.73
2023-05-23T13:50:00.292Z,12.70
2023-05-23T13:52:49.656Z,12.03
2023-05-23T13:55:36.654Z,12.23
2023-05-23T13:58:23.366Z,12.37
2023-05-23T14:01:10.623Z,13.17
2023-05-23T14:03:57.256Z,12.50
2023-05-23T14:06:44.042Z,13.37
2023-05-23T14:09:32.350Z,14.37
2023-05-23T14:12:18.731Z,14.00
2023-05-23T14:15:06.076Z,14.97
2023-05-23T14:17:55.486Z,13.80
2023-05-23T14:20:42.442Z,14.57
2023-05-23T14:23:29.308Z,14.00
2023-05-23T14:26:17.568Z,12.93
2023-05-23T14:29:04.731Z,13.13
2023-05-23T14:31:51.573Z,12.83
2023-05-23T14:34:38.400Z,10.23
2023-05-23T14:37:25.445Z,10.63
2023-05-23T14:40:13.490Z,10.73
2023-05-23T14:43:01.295Z,10.00
2023-05-23T14:45:48.295Z,10.73
2023-05-23T14:48:35.117Z,10.53
2023-05-23T14:51:42.039Z,10.60
2023-05-23T14:54:28.515Z,11.07
2023-05-23T14:57:15.324Z,10.43
2023-05-23T15:00:06.118Z,10.87
2023-05-23T15:02:53.297Z,10.67
2023-05-23T15:05:39.984Z,9.93
2023-05-23T15:08:27.310Z,10.20
2023-05-23T15:11:14.072Z,10.83
2023-05-23T15:14:01.095Z,9.20
2023-05-23T15:16:50.584Z,10.57
2023-05-23T15:19:46.202Z,9.83
2023-05-23T15:22:39.520Z,9.63
2023-05-23T15:25:47.069Z,10.13
2023-05-23T15:28:35.594Z,8.43
2023-05-23T15:31:23.596Z,7.93
2023-05-23T15:34:15.181Z,6.57
2023-05-23T15:37:02.304Z,7.40
2023-05-23T15:39:49.503Z,6.00
2023-05-23T15:42:36.415Z,6.50
2023-05-23T15:45:23.483Z,6.80
2023-05-23T15:48:10.511Z,6.90
2023-05-23T15:50:58.559Z,6.37
2023-05-23T15:53:59.734Z,5.87
2023-05-23T15:56:48.171Z,6.10
2023-05-23T15:59:36.291Z,6.13
2023-05-23T16:02:23.384Z,6.20
2023-05-23T16:05:10.278Z,6.43
2023-05-23T16:07:58.271Z,5.83
2023-05-23T16:10:45.138Z,8.17
2023-05-23T16:13:32.054Z,5.87
2023-05-23T16:16:18.941Z,5.80
2023-05-23T16:19:06.049Z,6.00
2023-05-23T16:21:53.162Z,5.47
2023-05-23T16:24:41.360Z,5.70
2023-05-23T16:27:28.184Z,4.90
2023-05-23T16:30:15.716Z,5.13
2023-05-23T16:33:02.697Z,4.57
2023-05-23T16:35:49.785Z,4.97
2023-05-23T16:38:37.252Z,4.70
2023-05-23T16:41:25.626Z,4.60
2023-05-23T16:44:12.195Z,4.73
2023-05-23T16:46:58.891Z,5.00
2023-05-23T16:49:46.221Z,5.07
2023-05-23T16:52:33.114Z,5.17
2023-05-23T16:55:19.894Z,5.17
2023-05-23T16:58:08.184Z,4.80
2023-05-23T17:00:55.027Z,3.90
2023-05-23T17:03:42.298Z,4.93
2023-05-23T17:06:29.089Z,4.73
2023-05-23T17:09:17.975Z,4.10
2023-05-23T17:12:05.206Z,4.57
2023-05-23T17:14:53.109Z,4.03
2023-05-23T17:17:39.947Z,3.70
2023-05-23T17:20:27.170Z,3.30
2023-05-23T17:23:13.786Z,3.70
2023-05-23T17:26:00.517Z,3.37
2023-05-23T17:28:47.517Z,3.03
2023-05-23T17:31:35.690Z,2.97
2023-05-23T17:34:22.401Z,2.50
2023-05-23T17:37:09.451Z,2.60
2023-05-23T17:39:57.688Z,2.23
2023-05-23T17:42:44.997Z,2.33
2023-05-23T17:45:31.924Z,2.23
2023-05-23T17:48:25.814Z,2.00
2023-05-23T17:51:18.258Z,2.00
2023-05-23T17:54:05.179Z,1.70
2023-05-23T17:56:51.750Z,1.60
2023-05-23T17:59:38.433Z,1.40
2023-05-23T18:02:25.382Z,1.63
2023-05-23T18:05:15.334Z,2.30
2023-05-23T18:08:05.100Z,1.73
2023-05-23T18:10:54.796Z,1.73
2023-05-23T18:13:41.654Z,1.73
2023-05-23T18:16:29.100Z,2.00
2023-05-23T18:19:16.255Z,2.40
2023-05-23T18:22:04.106Z,2.30
2023-05-23T18:24:50.849Z,2.63
2023-05-23T18:27:37.637Z,3.07
2023-05-23T18:30:24.836Z,3.03
2023-05-23T18:33:11.719Z,3.07
2023-05-23T18:35:58.632Z,2.83
2023-05-23T18:38:46.765Z,3.20
2023-05-23T18:41:33.625Z,2.67
2023-05-23T18:44:20.958Z,2.87
2023-05-23T18:47:08.129Z,3.57
2023-05-23T18:49:54.920Z,3.57
2023-05-23T18:52:42.408Z,3.60
2023-05-23T18:55:30.580Z,2.90
2023-05-23T18:58:17.144Z,3.67
2023-05-23T19:01:04.244Z,3.23
2023-05-23T19:03:51.044Z,3.80
2023-05-23T19:06:37.630Z,3.17
2023-05-23T19:09:24.514Z,3.57
2023-05-23T19:12:12.676Z,3.60
2023-05-23T19:14:59.799Z,3.63
2023-05-23T19:17:46.638Z,3.53
2023-05-23T19:20:33.716Z,3.13
2023-05-23T19:23:20.781Z,3.37
2023-05-23T19:26:07.824Z,3.67
2023-05-23T19:28:55.765Z,3.30
2023-05-23T19:31:42.592Z,3.90
2023-05-23T19:34:29.285Z,3.27
2023-05-23T19:37:16.200Z,3.87
2023-05-23T19:40:03.094Z,4.20
2023-05-23T19:42:50.039Z,3.77
2023-05-23T19:45:38.244Z,3.83
2023-05-23T19:48:25.089Z,3.27
2023-05-23T19:51:12.057Z,3.97
2023-05-23T19:53:59.004Z,4.03
2023-05-23T19:56:46.331Z,3.73
2023-05-23T19:59:33.681Z,3.13
2023-05-23T20:02:25.215Z,3.60
2023-05-23T20:05:11.879Z,4.07
2023-05-23T20:07:58.429Z,3.80
2023-05-23T20:10:45.480Z,3.93
2023-05-23T20:13:34.095Z,3.50
2023-05-23T20:16:20.865Z,3.87
2023-05-23T20:19:09.787Z,3.70
2023-05-23T20:21:56.751Z,3.77
2023-05-23T20:24:43.374Z,4.30
2023-05-23T20:27:30.243Z,4.10
2023-05-23T20:30:17.236Z,4.00
2023-05-23T20:33:04.371Z,4.00
2023-05-23T20:35:54.083Z,4.00
2023-05-23T20:38:41.707Z,4.10
2023-05-23T20:41:29.679Z,4.30
2023-05-23T20:44:17.306Z,4.07
2023-05-23T20:47:04.025Z,4.17
2023-05-23T20:49:51.187Z,4.10
2023-05-23T20:52:41.455Z,4.40
2023-05-23T20:55:29.294Z,4.63
2023-05-23T20:58:16.459Z,4.57
2023-05-23T21:01:03.042Z,4.30
2023-05-23T21:03:49.773Z,3.90
2023-05-23T21:06:36.904Z,4.07
2023-05-23T21:09:25.112Z,3.80
2023-05-23T21:12:12.040Z,4.33
2023-05-23T21:14:58.889Z,4.50
2023-05-23T21:17:45.924Z,4.33
2023-05-23T21:20:32.708Z,4.13
2023-05-23T21:23:19.551Z,4.07
2023-05-23T21:26:07.951Z,4.07
2023-05-23T21:28:54.800Z,4.00
2023-05-23T21:31:42.198Z,4.53
2023-05-23T21:34:28.864Z,4.47
2023-05-23T21:37:16.108Z,3.63
2023-05-23T21:40:03.261Z,4.17
2023-05-23T21:42:52.962Z,4.10
2023-05-23T21:45:42.098Z,4.17
2023-05-23T21:48:31.313Z,3.97
2023-05-23T21:51:19.992Z,4.10
2023-05-23T21:54:08.869Z,4.60
2023-05-23T21:56:57.671Z,4.20
2023-05-23T21:59:50.787Z,4.07
2023-05-23T22:02:40.086Z,3.90
2023-05-23T22:05:28.891Z,4.00
2023-05-23T22:08:16.605Z,4.00
2023-05-23T22:11:04.730Z,4.37
2023-05-23T22:13:53.795Z,4.17
2023-05-23T22:16:46.316Z,3.70
2023-05-23T22:19:35.485Z,3.87
2023-05-23T22:22:24.967Z,4.07
2023-05-23T22:25:13.320Z,4.07
2023-05-23T22:28:02.354Z,4.57
2023-05-23T22:30:52.758Z,3.57
2023-05-23T22:33:44.032Z,3.70
2023-05-23T22:36:35.957Z,4.07
2023-05-23T22:39:25.856Z,3.60
2023-05-23T22:42:14.368Z,3.63
2023-05-23T22:45:02.811Z,4.07
2023-05-23T22:47:54.505Z,3.80
2023-05-23T22:50:49.041Z,3.83
2023-05-23T22:53:40.132Z,3.57
2023-05-23T22:56:28.338Z,3.53
2023-05-23T22:59:17.705Z,3.97
2023-05-23T23:02:08.410Z,3.80
2023-05-23T23:04:56.047Z,4.17
2023-05-23T23:07:44.163Z,3.60
2023-05-23T23:10:30.964Z,3.60
2023-05-23T23:13:18.126Z,3.40
2023-05-23T23:16:04.716Z,3.37
2023-05-23T23:18:52.251Z,3.40
2023-05-23T23:21:39.198Z,3.40
2023-05-23T23:24:27.284Z,3.00
2023-05-23T23:27:14.030Z,3.67
2023-05-23T23:30:01.085Z,3.63
2023-05-23T23:32:47.695Z,3.20
2023-05-23T23:35:34.487Z,3.00
2023-05-23T23:38:21.340Z,3.70
2023-05-23T23:41:09.690Z,3.53
2023-05-23T23:43:57.566Z,3.70
2023-05-23T23:46:44.629Z,3.60
2023-05-23T23:49:31.369Z,3.57
2023-05-23T23:52:18.281Z,3.50
2023-05-23T23:55:05.419Z,3.40
2023-05-23T23:57:53.622Z,2.90
